Time;durP1;ratioP1;P1;durP2;ratioP2;P2;SDS_P1;SDS_P2;PMS_P1;PMS_P2;Temp;Humidity;BMP_temperature;BMP_pressure;BME280_temperature;BME280_humidity;BME280_pressure;Samples;Min_cycle;Max_cycle;Signal;HPM_P1;HPM_P2
2023/12/09 00:00:00;;;;;;;;;;;;;;;5.64;100.00;100968.97;5038236;28;1109;-72
2023/12/09 00:02:25;;;;;;;;;;;;;;;5.60;100.00;100972.66;5041731;28;1346;-72
2023/12/09 00:04:51;;;;;;;;;;;;;;;5.60;100.00;100967.50;5033479;28;1947;-75
2023/12/09 00:07:16;;;;;;;;;;;;;;;5.59;100.00;100974.38;5034937;28;1279;-72
2023/12/09 00:09:41;;;;;;;;;;;;;;;5.59;100.00;100974.38;5031126;28;1164;-72
2023/12/09 00:12:06;;;;;;;;;;;;;;;5.62;100.00;100975.97;5029362;28;1275;-72
2023/12/09 00:14:31;;;;;;;;;;;;;;;5.60;100.00;100967.50;5038767;28;1132;-72
2023/12/09 00:16:56;;;;;;;;;;;;;;;5.62;100.00;100965.69;5045267;28;1271;-71
2023/12/09 00:19:22;;;;;;;;;;;;;;;5.59;100.00;100965.84;5049181;28;1212;-71
2023/12/09 00:21:47;;;;;;;;;;;;;;;5.58;100.00;100964.19;5048915;28;1207;-71
2023/12/09 00:24:12;;;;;;;;;;;;;;;5.57;100.00;100970.25;5044782;28;1951;-72
2023/12/09 00:26:37;;;;;;;;;;;;;;;5.55;100.00;100965.19;5052467;28;1343;-74
2023/12/09 00:29:02;;;;;;;;;;;;;;;5.54;100.00;100973.00;5049560;28;1274;-72
2023/12/09 00:31:28;;;;;;;;;;;;;;;5.55;100.00;100974.66;5047091;28;1190;-73
2023/12/09 00:33:53;;;;;;;;;;;;;;;5.53;100.00;100966.22;5056929;28;1165;-73
2023/12/09 00:36:18;;;;;;;;;;;;;;;5.53;100.00;100972.19;5054245;28;1064;-73
2023/12/09 00:38:43;;;;;;;;;;;;;;;5.53;100.00;100976.50;5051056;28;1095;-73
2023/12/09 00:41:09;;;;;;;;;;;;;;;5.52;100.00;100980.00;5042983;28;1149;-72
2023/12/09 00:43:34;;;;;;;;;;;;;;;5.51;100.00;100986.06;5048012;28;1151;-73
2023/12/09 00:45:59;;;;;;;;;;;;;;;5.51;100.00;100991.22;5046548;28;1975;-72
2023/12/09 00:48:24;;;;;;;;;;;;;;;5.49;100.00;100975.84;5048420;28;1142;-72
2023/12/09 00:50:49;;;;;;;;;;;;;;;5.50;100.00;100979.22;5039786;28;1134;-72
2023/12/09 00:53:15;;;;;;;;;;;;;;;5.48;100.00;100986.22;5050008;28;1091;-73
2023/12/09 00:55:40;;;;;;;;;;;;;;;5.57;100.00;100977.97;5039360;28;965;-72
2023/12/09 00:58:05;;;;;;;;;;;;;;;5.50;100.00;100979.22;5038374;28;1033;-73
2023/12/09 01:00:30;;;;;;;;;;;;;;;5.48;100.00;100984.47;5034279;28;1191;-73
2023/12/09 01:02:55;;;;;;;;;;;;;;;5.48;100.00;100984.47;5038165;28;1090;-73
2023/12/09 01:05:21;;;;;;;;;;;;;;;5.48;100.00;100978.50;5032703;28;1910;-71
2023/12/09 01:07:46;;;;;;;;;;;;;;;5.47;100.00;100964.00;5029453;28;1309;-73
2023/12/09 01:10:11;;;;;;;;;;;;;;;5.47;100.00;100961.41;5033108;28;1247;-73
2023/12/09 01:12:37;;;;;;;;;;;;;;;5.48;100.00;100952.78;5044996;28;1149;-71
2023/12/09 01:15:03;;;;;;;;;;;;;;;5.49;100.00;100957.00;5034348;28;1069;-71
2023/12/09 01:17:28;;;;;;;;;;;;;;;5.49;100.00;100954.44;5042831;28;1226;-74
2023/12/09 01:19:53;;;;;;;;;;;;;;;5.49;100.00;100964.72;5040079;28;1356;-72
2023/12/09 01:22:18;;;;;;;;;;;;;;;5.48;100.00;100963.91;5038053;28;1202;-73
2023/12/09 01:24:43;;;;;;;;;;;;;;;5.50;100.00;100971.50;5053014;28;1905;-72
2023/12/09 01:27:09;;;;;;;;;;;;;;;5.47;100.00;100961.41;5044407;28;1038;-72
2023/12/09 01:29:36;;;;;;;;;;;;;;;5.48;100.00;100963.06;5048642;28;1087;-71
2023/12/09 01:32:01;;;;;;;;;;;;;;;5.48;100.00;100968.22;5038332;28;1074;-72
2023/12/09 01:34:26;;;;;;;;;;;;;;;5.46;100.00;100972.63;5056930;28;1281;-72
2023/12/09 01:36:51;;;;;;;;;;;;;;;5.45;100.00;100982.09;5055798;28;1171;-72
2023/12/09 01:39:16;;;;;;;;;;;;;;;5.44;100.00;100966.72;5049502;28;1289;-72
2023/12/09 01:41:43;;;;;;;;;;;;;;;5.43;100.00;100965.06;5044733;28;1033;-72
2023/12/09 01:44:08;;;;;;;;;;;;;;;5.43;100.00;100972.78;5046767;28;1964;-73
2023/12/09 01:46:34;;;;;;;;;;;;;;;5.38;100.00;100956.78;5052547;28;1091;-73
2023/12/09 01:48:59;;;;;;;;;;;;;;;5.37;100.00;100970.56;5037944;28;1082;-73
2023/12/09 01:51:25;;;;;;;;;;;;;;;5.35;100.00;100965.53;5049722;28;1318;-72
2023/12/09 01:53:51;;;;;;;;;;;;;;;5.33;100.00;100965.63;5043133;28;1226;-73
2023/12/09 01:56:17;;;;;;;;;;;;;;;5.33;100.00;100950.19;5032153;28;1069;-73
2023/12/09 01:58:42;;;;;;;;;;;;;;;5.32;100.00;100951.09;5041040;28;1107;-73
2023/12/09 02:01:08;;;;;;;;;;;;;;;5.28;100.00;100951.38;5045169;28;1141;-75
2023/12/09 02:03:33;;;;;;;;;;;;;;;5.27;100.00;100949.69;5040495;28;1240;-72
2023/12/09 02:05:58;;;;;;;;;;;;;;;5.25;100.00;100951.53;5041855;28;1910;-73
2023/12/09 02:08:24;;;;;;;;;;;;;;;5.21;100.00;100932.88;5041240;28;887;-72
2023/12/09 02:10:55;;;;;;;;;;;;;;;5.20;100.00;100938.94;5039299;28;1177;-71
2023/12/09 02:13:23;;;;;;;;;;;;;;;5.18;100.00;100925.34;5039059;28;1161;-72
2023/12/09 02:15:48;;;;;;;;;;;;;;;5.16;100.00;100929.75;5040514;28;1234;-72
2023/12/09 02:18:14;;;;;;;;;;;;;;;5.15;100.00;100930.66;5037181;28;1037;-73
2023/12/09 02:20:40;;;;;;;;;;;;;;;5.13;100.00;100919.66;5042758;28;1036;-76
2023/12/09 02:23:08;;;;;;;;;;;;;;;5.13;100.00;100919.66;5033233;28;1054;-72
2023/12/09 02:25:33;;;;;;;;;;;;;;;5.10;100.00;100922.38;5032011;28;1898;-71
2023/12/09 02:28:00;;;;;;;;;;;;;;;5.09;100.00;100915.59;5038953;28;1013;-73
2023/12/09 02:30:31;;;;;;;;;;;;;;;5.08;100.00;100926.78;5028895;28;1208;-71
2023/12/09 02:32:58;;;;;;;;;;;;;;;5.06;100.00;100920.91;5054274;28;1096;-72
2023/12/09 02:35:24;;;;;;;;;;;;;;;5.04;100.00;100923.56;5053206;28;1282;-72
2023/12/09 02:37:51;;;;;;;;;;;;;;;5.02;100.00;100932.28;5035352;28;1400;-72
2023/12/09 02:40:17;;;;;;;;;;;;;;;5.01;100.00;100922.91;5041878;28;1081;-72
2023/12/09 02:42:42;;;;;;;;;;;;;;;5.01;100.00;100925.50;5051672;28;1218;-72
2023/12/09 02:45:07;;;;;;;;;;;;;;;4.99;100.00;100914.47;5047289;28;1918;-73
2023/12/09 02:47:33;;;;;;;;;;;;;;;4.99;100.00;100914.47;5048828;28;1429;-72
2023/12/09 02:49:58;;;;;;;;;;;;;;;4.99;100.00;100914.47;5049211;28;1071;-73
2023/12/09 02:52:23;;;;;;;;;;;;;;;4.97;100.00;100898.28;5049276;28;1113;-74
2023/12/09 02:54:48;;;;;;;;;;;;;;;4.97;100.00;100900.88;5039206;28;1357;-73
2023/12/09 02:57:13;;;;;;;;;;;;;;;4.95;100.00;100882.16;5045336;28;1193;-73
2023/12/09 02:59:39;;;;;;;;;;;;;;;4.95;100.00;100882.16;5039290;28;1266;-73
2023/12/09 03:02:04;;;;;;;;;;;;;;;4.96;100.00;100888.94;5045087;28;1095;-74
2023/12/09 03:04:31;;;;;;;;;;;;;;;4.94;100.00;100895.91;5047589;28;1939;-71
2023/12/09 03:06:56;;;;;;;;;;;;;;;4.94;100.00;100895.91;5045488;28;1073;-73
2023/12/09 03:09:21;;;;;;;;;;;;;;;4.92;100.00;100887.44;5046628;28;1113;-71
2023/12/09 03:11:46;;;;;;;;;;;;;;;4.92;100.00;100872.03;5043852;28;1093;-72
2023/12/09 03:14:11;;;;;;;;;;;;;;;4.92;100.00;100861.75;5043292;28;1370;-72
2023/12/09 03:16:37;;;;;;;;;;;;;;;4.92;100.00;100856.59;5032463;28;1403;-75
2023/12/09 03:19:03;;;;;;;;;;;;;;;4.92;100.00;100861.75;5039839;28;1056;-73
2023/12/09 03:21:28;;;;;;;;;;;;;;;4.91;100.00;100860.09;5052212;28;1215;-72
2023/12/09 03:23:53;;;;;;;;;;;;;;;4.92;100.00;100869.44;5042548;28;1914;-74
2023/12/09 03:26:19;;;;;;;;;;;;;;;4.93;100.00;100876.25;5033898;28;1182;-72
2023/12/09 03:28:45;;;;;;;;;;;;;;;4.93;100.00;100859.09;5044792;28;1118;-73
2023/12/09 03:31:14;;;;;;;;;;;;;;;4.94;100.00;100875.34;5044966;28;1053;-74
2023/12/09 03:33:39;;;;;;;;;;;;;;;4.94;100.00;100859.94;5036682;28;1369;-72
2023/12/09 03:36:05;;;;;;;;;;;;;;;4.93;100.00;100868.53;5041760;28;1185;-72
2023/12/09 03:38:30;;;;;;;;;;;;;;;4.94;100.00;100867.66;5036736;28;1305;-72
2023/12/09 03:40:56;;;;;;;;;;;;;;;4.94;100.00;100865.06;5040632;28;1090;-74
2023/12/09 03:43:21;;;;;;;;;;;;;;;4.93;100.00;100865.97;5043782;28;1061;-71
2023/12/09 03:45:46;;;;;;;;;;;;;;;4.92;100.00;100864.31;5038070;28;1921;-74
2023/12/09 03:48:11;;;;;;;;;;;;;;;4.93;100.00;100864.25;5036737;28;1218;-72
2023/12/09 03:50:36;;;;;;;;;;;;;;;4.92;100.00;100859.16;5032502;28;1465;-74
2023/12/09 03:53:01;;;;;;;;;;;;;;;4.92;100.00;100867.72;5029215;28;980;-71
2023/12/09 03:55:27;;;;;;;;;;;;;;;4.93;100.00;100860.81;5055486;28;1221;-75
2023/12/09 03:57:53;;;;;;;;;;;;;;;4.91;100.00;100862.66;5045810;28;1126;-72
2023/12/09 04:00:19;;;;;;;;;;;;;;;4.90;100.00;100854.13;5057002;28;1258;-74
2023/12/09 04:02:44;;;;;;;;;;;;;;;4.89;100.00;100856.78;5036292;28;1122;-72
2023/12/09 04:05:09;;;;;;;;;;;;;;;4.87;100.00;100856.88;5039052;28;1957;-72
2023/12/09 04:07:35;;;;;;;;;;;;;;;4.88;100.00;100852.56;5043526;28;1224;-74
2023/12/09 04:10:01;;;;;;;;;;;;;;;4.87;100.00;100840.63;5044286;28;1214;-73
2023/12/09 04:12:26;;;;;;;;;;;;;;;4.86;100.00;100841.53;5034953;28;1062;-73
2023/12/09 04:14:51;;;;;;;;;;;;;;;4.85;100.00;100827.03;5038303;28;1290;-73
2023/12/09 04:17:16;;;;;;;;;;;;;;;4.84;100.00;100835.66;5046969;28;970;-73
2023/12/09 04:19:42;;;;;;;;;;;;;;;4.82;100.00;100824.63;5046825;28;1276;-73
2023/12/09 04:22:07;;;;;;;;;;;;;;;4.80;100.00;100822.97;5051318;28;1084;-71
2023/12/09 04:24:32;;;;;;;;;;;;;;;4.79;100.00;100816.19;5043623;28;1910;-72
2023/12/09 04:26:57;;;;;;;;;;;;;;;4.78;100.00;100809.41;5049956;28;1336;-72
2023/12/09 04:29:22;;;;;;;;;;;;;;;4.77;100.00;100812.06;5039203;28;1255;-72
2023/12/09 04:31:48;;;;;;;;;;;;;;;4.75;100.00;100814.72;5048235;28;1243;-74
2023/12/09 04:34:13;;;;;;;;;;;;;;;4.72;100.00;100804.63;5042451;28;1211;-72
2023/12/09 04:36:38;;;;;;;;;;;;;;;4.72;100.00;100809.75;5048301;28;1187;-73
2023/12/09 04:39:04;;;;;;;;;;;;;;;4.73;100.00;100821.69;5045409;28;1384;-72
2023/12/09 04:41:29;;;;;;;;;;;;;;;4.70;100.00;100811.59;5048449;28;947;-72
2023/12/09 04:43:54;;;;;;;;;;;;;;;4.71;100.00;100812.44;5036099;28;1983;-72
2023/12/09 04:46:19;;;;;;;;;;;;;;;4.68;100.00;100823.69;5044532;28;1006;-73
2023/12/09 04:48:44;;;;;;;;;;;;;;;4.68;100.00;100813.41;5047294;28;1109;-72
2023/12/09 04:51:09;;;;;;;;;;;;;;;4.66;100.00;100810.13;5042277;28;1286;-72
2023/12/09 04:53:35;;;;;;;;;;;;;;;4.66;100.00;100814.44;5039974;28;1201;-75
2023/12/09 04:56:00;;;;;;;;;;;;;;;4.64;100.00;100796.50;5045137;28;1152;-71
2023/12/09 04:58:25;;;;;;;;;;;;;;;4.64;100.00;100785.41;5036296;28;1024;-74
2023/12/09 05:00:50;;;;;;;;;;;;;;;4.63;100.00;100787.16;5043879;28;1178;-73
2023/12/09 05:03:15;;;;;;;;;;;;;;;4.62;100.00;100787.25;5039631;28;1051;-72
2023/12/09 05:05:41;;;;;;;;;;;;;;;4.61;100.00;100785.59;5047528;28;1993;-74
2023/12/09 05:08:06;;;;;;;;;;;;;;;4.61;100.00;100781.28;5031792;28;1278;-72
2023/12/09 05:10:31;;;;;;;;;;;;;;;4.60;100.00;100774.50;5046256;28;1128;-73
2023/12/09 05:12:57;;;;;;;;;;;;;;;4.59;100.00;100779.72;5042025;28;1473;-71
2023/12/09 05:15:22;;;;;;;;;;;;;;;4.58;100.00;100771.19;5041772;28;1066;-74
2023/12/09 05:17:48;;;;;;;;;;;;;;;4.57;100.00;100774.66;5041418;28;967;-72
2023/12/09 05:20:13;;;;;;;;;;;;;;;4.57;100.00;100776.41;5044936;28;1068;-73
2023/12/09 05:22:38;;;;;;;;;;;;;;;4.57;100.00;100769.53;5048030;28;1012;-73
2023/12/09 05:25:04;;;;;;;;;;;;;;;4.56;100.00;100773.03;5050866;28;1921;-72
2023/12/09 05:27:29;;;;;;;;;;;;;;;4.56;100.00;100773.03;5044017;28;1147;-72
2023/12/09 05:29:55;;;;;;;;;;;;;;;4.56;100.00;100772.19;5048551;28;1107;-73
2023/12/09 05:32:20;;;;;;;;;;;;;;;4.57;100.00;100768.72;5049433;28;1160;-71
2023/12/09 05:34:45;;;;;;;;;;;;;;;4.55;100.00;100778.25;5048190;28;1182;-71
2023/12/09 05:37:10;;;;;;;;;;;;;;;4.55;100.00;100771.38;5040392;28;1068;-72
2023/12/09 05:39:35;;;;;;;;;;;;;;;4.55;100.00;100771.38;5040006;28;1041;-72
2023/12/09 05:42:01;;;;;;;;;;;;;;;4.54;100.00;100769.72;5052550;28;1214;-72
2023/12/09 05:44:26;;;;;;;;;;;;;;;4.55;100.00;100766.25;5036936;28;1894;-71
2023/12/09 05:46:51;;;;;;;;;;;;;;;4.54;100.00;100751.75;5036879;28;1092;-73
2023/12/09 05:49:16;;;;;;;;;;;;;;;4.53;100.00;100753.50;5040569;28;1051;-72
2023/12/09 05:51:42;;;;;;;;;;;;;;;4.53;100.00;100752.66;5037304;28;1404;-71
2023/12/09 05:54:07;;;;;;;;;;;;;;;4.53;100.00;100762.94;5043090;28;1026;-71
2023/12/09 05:56:33;;;;;;;;;;;;;;;4.52;100.00;100761.25;5035711;28;1366;-72
2023/12/09 05:58:58;;;;;;;;;;;;;;;4.51;100.00;100760.44;5037112;28;1378;-74
2023/12/09 06:01:23;;;;;;;;;;;;;;;4.52;100.00;100761.25;5041564;28;1222;-73
2023/12/09 06:03:48;;;;;;;;;;;;;;;4.52;100.00;100758.69;5032964;28;925;-74
2023/12/09 06:06:13;;;;;;;;;;;;;;;4.52;100.00;100761.25;5034681;28;1965;-72
2023/12/09 06:11:22;;;;;;;;;;;;;;;4.51;100.00;100744.22;5044873;28;1003;-72
2023/12/09 06:13:48;;;;;;;;;;;;;;;4.51;100.00;100739.88;5038977;28;1238;-73
2023/12/09 06:16:19;;;;;;;;;;;;;;;4.50;100.00;100748.50;5046434;28;1406;-72
2023/12/09 06:18:45;;;;;;;;;;;;;;;4.49;100.00;100735.78;5049979;28;989;-73
2023/12/09 06:21:19;;;;;;;;;;;;;;;4.48;100.00;100731.56;5050857;28;1076;-74
2023/12/09 06:23:44;;;;;;;;;;;;;;;4.46;100.00;100730.78;5037123;28;1095;-72
2023/12/09 06:26:09;;;;;;;;;;;;;;;4.46;100.00;100725.66;5053022;28;1905;-71
2023/12/09 06:28:34;;;;;;;;;;;;;;;4.45;100.00;100724.00;5043905;28;1369;-72
2023/12/09 06:31:01;;;;;;;;;;;;;;;4.41;100.00;100710.50;5047602;28;1134;-74
2023/12/09 06:33:26;;;;;;;;;;;;;;;4.44;100.00;100712.09;5042436;28;1122;-72
2023/12/09 06:35:51;;;;;;;;;;;;;;;4.43;100.00;100710.44;5040699;28;1039;-73
2023/12/09 06:38:16;;;;;;;;;;;;;;;4.43;100.00;100697.59;5035787;28;1384;-71
2023/12/09 06:40:41;;;;;;;;;;;;;;;4.40;100.00;100690.91;5043066;28;1236;-74
2023/12/09 06:43:06;;;;;;;;;;;;;;;4.40;100.00;100684.94;5045698;28;922;-71
2023/12/09 06:45:32;;;;;;;;;;;;;;;4.39;100.00;100683.28;5045807;28;1951;-72
2023/12/09 06:47:57;;;;;;;;;;;;;;;4.39;100.00;100678.97;5044869;28;1161;-72
2023/12/09 06:50:22;;;;;;;;;;;;;;;4.40;100.00;100674.66;5041833;28;1345;-72
2023/12/09 06:52:47;;;;;;;;;;;;;;;4.40;100.00;100669.53;5041410;28;1126;-73
2023/12/09 06:55:12;;;;;;;;;;;;;;;4.39;100.00;100675.59;5034128;28;1158;-72
2023/12/09 06:57:38;;;;;;;;;;;;;;;4.40;100.00;100669.53;5036389;28;1077;-71
2023/12/09 07:00:07;;;;;;;;;;;;;;;4.40;100.00;100665.22;5035345;28;1094;-73
2023/12/09 07:02:32;;;;;;;;;;;;;;;4.41;100.00;100658.34;5032811;28;1004;-73
2023/12/09 07:04:57;;;;;;;;;;;;;;;4.40;100.00;100638.72;5032927;28;1963;-71
2023/12/09 07:07:23;;;;;;;;;;;;;;;4.40;100.00;100636.16;5030289;28;1150;-72
2023/12/09 07:09:48;;;;;;;;;;;;;;;4.41;100.00;100630.09;5032699;28;1282;-71
2023/12/09 07:12:13;;;;;;;;;;;;;;;4.40;100.00;100623.31;5031166;28;1105;-73
2023/12/09 07:14:38;;;;;;;;;;;;;;;4.39;100.00;100617.34;5033899;28;1159;-71
2023/12/09 07:17:03;;;;;;;;;;;;;;;4.40;100.00;100607.91;5039507;28;1112;-74
2023/12/09 07:19:29;;;;;;;;;;;;;;;4.41;100.00;100609.53;5033405;28;978;-71
2023/12/09 07:21:54;;;;;;;;;;;;;;;4.43;100.00;100605.16;5037266;28;1141;-72
2023/12/09 07:24:19;;;;;;;;;;;;;;;4.44;100.00;100606.81;5037849;28;1902;-74
2023/12/09 07:26:44;;;;;;;;;;;;;;;4.45;100.00;100598.19;5040726;28;898;-73
2023/12/09 07:29:09;;;;;;;;;;;;;;;4.48;100.00;100600.59;5048446;28;1263;-72
2023/12/09 07:31:35;;;;;;;;;;;;;;;4.50;100.00;100601.31;5049739;28;1062;-73
2023/12/09 07:34:00;;;;;;;;;;;;;;;4.49;100.00;100597.09;5041436;28;1067;-73
2023/12/09 07:36:25;;;;;;;;;;;;;;;4.53;100.00;100596.00;5042896;28;1292;-72
2023/12/09 07:38:50;;;;;;;;;;;;;;;4.54;100.00;100589.94;5043673;28;1113;-72
2023/12/09 07:41:15;;;;;;;;;;;;;;;4.55;100.00;100596.72;5037696;28;1047;-73
2023/12/09 07:43:41;;;;;;;;;;;;;;;4.58;100.00;100601.66;5047075;28;1011;-74
2023/12/09 07:46:06;;;;;;;;;;;;;;;4.60;100.00;100579.28;5035927;28;1902;-75
2023/12/09 07:48:31;;;;;;;;;;;;;;;4.62;100.00;100580.03;5037187;28;1231;-72
2023/12/09 07:50:57;;;;;;;;;;;;;;;4.65;100.00;100582.41;5044311;28;1002;-72
2023/12/09 07:53:22;;;;;;;;;;;;;;;4.68;100.00;100571.13;5048003;28;1257;-72
2023/12/09 07:55:47;;;;;;;;;;;;;;;4.68;100.00;100569.38;5034944;28;1064;-74
2023/12/09 07:58:12;;;;;;;;;;;;;;;4.71;100.00;100570.94;5041356;28;1010;-71
2023/12/09 08:00:38;;;;;;;;;;;;;;;4.72;100.00;100567.44;5042436;28;1091;-72
2023/12/09 08:03:04;;;;;;;;;;;;;;;4.74;100.00;100561.28;5039160;28;1198;-74
2023/12/09 08:05:29;;;;;;;;;;;;;;;4.75;100.00;100562.94;5043889;28;2005;-72
2023/12/09 08:07:54;;;;;;;;;;;;;;;4.77;100.00;100561.09;5044441;28;1153;-72
2023/12/09 08:10:20;;;;;;;;;;;;;;;4.79;100.00;100564.41;5039931;28;1169;-71
2023/12/09 08:12:45;;;;;;;;;;;;;;;4.82;100.00;100567.69;5036330;28;1001;-72
2023/12/09 08:15:11;;;;;;;;;;;;;;;4.84;100.00;100565.88;5037452;28;1122;-72
2023/12/09 08:17:36;;;;;;;;;;;;;;;4.86;100.00;100574.28;5038304;28;945;-71
2023/12/09 08:20:05;;;;;;;;;;;;;;;4.86;100.00;100564.84;5041188;28;1254;-73
2023/12/09 08:22:31;;;;;;;;;;;;;;;4.89;100.00;100558.69;5039605;28;1447;-71
2023/12/09 08:24:56;;;;;;;;;;;;;;;4.90;100.00;100560.34;5046459;28;2671;-73
2023/12/09 08:27:21;;;;;;;;;;;;;;;4.92;100.00;100550.78;5051904;28;1473;-71
2023/12/09 08:29:46;;;;;;;;;;;;;;;4.95;100.00;100563.47;5052244;28;1121;-73
2023/12/09 08:32:12;;;;;;;;;;;;;;;4.96;100.00;100549.69;5047505;28;1008;-72
2023/12/09 08:34:37;;;;;;;;;;;;;;;4.98;100.00;100532.41;5049130;28;1086;-72
2023/12/09 08:37:02;;;;;;;;;;;;;;;5.00;100.00;100533.16;5048857;28;974;-72
2023/12/09 08:39:27;;;;;;;;;;;;;;;5.03;100.00;100535.53;5042733;28;1244;-74
2023/12/09 08:41:52;;;;;;;;;;;;;;;5.05;100.00;100523.41;5053841;28;1049;-72
2023/12/09 08:44:18;;;;;;;;;;;;;;;5.09;100.00;100524.84;5050870;28;1953;-72
2023/12/09 08:46:43;;;;;;;;;;;;;;;5.11;100.00;100528.16;5048539;28;1106;-72
2023/12/09 08:49:08;;;;;;;;;;;;;;;5.13;100.00;100516.03;5041990;28;1024;-72
2023/12/09 08:51:43;;;;;;;;;;;;;;;5.17;100.00;100511.53;5046977;28;1127;-73
2023/12/09 08:54:08;;;;;;;;;;;;;;;5.18;100.00;100519.13;5039278;28;938;-73
2023/12/09 08:56:34;;;;;;;;;;;;;;;5.21;100.00;100507.81;5038516;28;1143;-73
2023/12/09 08:58:59;;;;;;;;;;;;;;;5.22;100.00;100505.16;5040650;28;1174;-72
2023/12/09 09:01:24;;;;;;;;;;;;;;;5.24;100.00;100493.03;5047815;28;1083;-71
2023/12/09 09:03:49;;;;;;;;;;;;;;;5.26;100.00;100482.63;5040683;28;934;-73
2023/12/09 09:06:14;;;;;;;;;;;;;;;5.28;100.00;100473.91;5046219;28;1925;-74
2023/12/09 09:08:41;;;;;;;;;;;;;;;5.29;100.00;100469.59;5036094;28;1036;-72
2023/12/09 09:11:06;;;;;;;;;;;;;;;5.32;100.00;100464.22;5042411;28;1129;-72
2023/12/09 09:13:31;;;;;;;;;;;;;;;5.36;100.00;100450.25;5041014;28;1241;-71
2023/12/09 09:15:57;;;;;;;;;;;;;;;5.39;100.00;100438.94;5036565;28;1052;-74
2023/12/09 09:18:22;;;;;;;;;;;;;;;5.40;100.00;100420.03;5033640;28;1126;-72
2023/12/09 09:20:47;;;;;;;;;;;;;;;5.42;100.00;100420.75;5033242;28;1171;-71
2023/12/09 09:23:12;;;;;;;;;;;;;;;5.44;100.00;100406.03;5028967;28;939;-75
2023/12/09 09:25:38;;;;;;;;;;;;;;;5.45;100.00;100413.66;5038355;28;1898;-72
2023/12/09 09:28:03;;;;;;;;;;;;;;;5.48;100.00;100402.31;5047125;28;1335;-73
2023/12/09 09:30:28;;;;;;;;;;;;;;;5.50;100.00;100405.59;5049668;28;1182;-73
2023/12/09 09:32:53;;;;;;;;;;;;;;;5.52;100.00;100403.78;5059561;28;937;-72
2023/12/09 09:35:19;;;;;;;;;;;;;;;5.53;100.00;100395.13;5042707;28;1055;-74
2023/12/09 09:37:44;;;;;;;;;;;;;;;5.55;100.00;100393.25;5047620;28;1193;-72
2023/12/09 09:40:11;;;;;;;;;;;;;;;5.57;100.00;100386.28;5046035;28;1262;-73
2023/12/09 09:42:39;;;;;;;;;;;;;;;5.57;100.00;100381.97;5043863;28;1162;-73
2023/12/09 09:45:27;;;;;;;;;;;;;;;5.58;100.00;100375.06;5053384;28;1894;-74
2023/12/09 09:47:53;;;;;;;;;;;;;;;5.60;100.00;100379.16;5040128;28;1110;-74
2023/12/09 09:50:21;;;;;;;;;;;;;;;5.63;100.00;100380.72;5046795;28;1266;-73
2023/12/09 09:52:46;;;;;;;;;;;;;;;5.64;100.00;100372.06;5043159;28;970;-74
2023/12/09 09:55:13;;;;;;;;;;;;;;;5.67;100.00;100371.03;5046788;28;895;-74
2023/12/09 09:57:39;;;;;;;;;;;;;;;5.68;100.00;100358.09;5043871;28;1159;-73
2023/12/09 10:00:16;;;;;;;;;;;;;;;5.70;100.00;100335.63;5053489;28;1090;-72
2023/12/09 10:02:50;;;;;;;;;;;;;;;5.72;100.00;100333.75;5044846;28;1007;-72
2023/12/09 10:05:17;;;;;;;;;;;;;;;5.74;100.00;100306.19;5040912;28;1914;-75
2023/12/09 10:07:42;;;;;;;;;;;;;;;5.78;100.00;100307.59;5038576;28;1124;-74
2023/12/09 10:10:08;;;;;;;;;;;;;;;5.82;100.00;100297.94;5044462;28;1125;-73
2023/12/09 10:12:34;;;;;;;;;;;;;;;5.83;100.00;100272.09;5045009;28;991;-73
2023/12/09 10:14:59;;;;;;;;;;;;;;;5.85;100.00;100267.66;5037682;28;874;-72
2023/12/09 10:17:25;;;;;;;;;;;;;;;5.90;100.00;100274.22;5039701;28;1210;-73
2023/12/09 10:19:50;;;;;;;;;;;;;;;5.91;100.00;100276.75;5037198;28;1233;-74
2023/12/09 10:22:15;;;;;;;;;;;;;;;5.95;100.00;100264.44;5033229;28;1186;-73
2023/12/09 10:24:47;;;;;;;;;;;;;;;5.98;100.00;100253.94;5039660;28;1906;-73
2023/12/09 10:27:12;;;;;;;;;;;;;;;6.00;100.00;100244.34;5036443;28;1030;-73
2023/12/09 10:29:37;;;;;;;;;;;;;;;6.03;100.00;100250.13;5032630;28;998;-73
2023/12/09 10:32:03;;;;;;;;;;;;;;;6.07;100.00;100250.69;5034122;28;1137;-73
2023/12/09 10:34:28;;;;;;;;;;;;;;;6.10;100.00;100237.63;5044145;28;1151;-74
2023/12/09 10:36:53;;;;;;;;;;;;;;;6.12;100.00;100225.44;5040909;28;1360;-73
2023/12/09 10:39:19;;;;;;;;;;;;;;;6.13;100.00;100214.22;5041598;28;1119;-72
2023/12/09 10:41:45;;;;;;;;;;;;;;;6.16;100.00;100203.72;5051129;28;1167;-73
2023/12/09 10:44:10;;;;;;;;;;;;;;;6.18;100.00;100199.25;5043077;28;1973;-73
2023/12/09 10:46:35;;;;;;;;;;;;;;;6.20;100.00;100179.38;5039087;28;1008;-73
2023/12/09 10:49:01;;;;;;;;;;;;;;;6.21;100.00;100186.16;5041439;28;1203;-73
2023/12/09 10:51:26;;;;;;;;;;;;;;;6.24;100.00;100180.78;5042093;28;1359;-74
2023/12/09 10:53:51;;;;;;;;;;;;;;;6.27;100.00;100164.28;5039072;28;1108;-72
2023/12/09 10:56:17;;;;;;;;;;;;;;;6.28;100.00;100148.72;5044267;28;1202;-74
2023/12/09 10:58:44;;;;;;;;;;;;;;;6.30;100.00;100144.25;5039945;28;1127;-76
2023/12/09 11:01:09;;;;;;;;;;;;;;;6.34;100.00;100144.88;5047974;28;1062;-73
2023/12/09 11:03:35;;;;;;;;;;;;;;;6.35;100.00;100134.44;5035588;28;1130;-74
2023/12/09 11:06:01;;;;;;;;;;;;;;;6.38;100.00;100126.50;5040050;28;1981;-73
2023/12/09 11:08:29;;;;;;;;;;;;;;;6.37;100.00;100122.28;5044354;28;1078;-76
2023/12/09 11:10:55;;;;;;;;;;;;;;;6.39;100.00;100112.69;5045571;28;1036;-73
2023/12/09 11:13:23;;;;;;;;;;;;;;;6.43;100.00;100091.84;5040744;28;1144;-73
2023/12/09 11:15:49;;;;;;;;;;;;;;;6.44;100.00;100078.03;5039443;28;1131;-75
2023/12/09 11:18:17;;;;;;;;;;;;;;;6.46;100.00;100065.84;5038779;28;1013;-73
2023/12/09 11:20:44;;;;;;;;;;;;;;;6.47;100.00;100064.91;5042335;28;1007;-74
2023/12/09 11:23:10;;;;;;;;;;;;;;;6.46;100.00;100060.69;5039422;28;1063;-74
2023/12/09 11:25:38;;;;;;;;;;;;;;;6.45;100.00;100038.47;5047248;28;1949;-73
2023/12/09 11:28:03;;;;;;;;;;;;;;;6.45;100.00;100034.13;5036993;28;1038;-73
2023/12/09 11:30:30;;;;;;;;;;;;;;;6.44;100.00;100022.19;5046981;28;1009;-74
2023/12/09 11:32:55;;;;;;;;;;;;;;;6.47;100.00;100015.97;5040706;28;1200;-72
2023/12/09 11:35:20;;;;;;;;;;;;;;;6.47;100.00;100000.50;5040421;28;1282;-72
2023/12/09 11:37:48;;;;;;;;;;;;;;;6.46;100.00;99993.72;5033063;28;1102;-73
2023/12/09 11:40:13;;;;;;;;;;;;;;;6.39;100.00;99963.28;5036575;28;981;-73
2023/12/09 11:42:39;;;;;;;;;;;;;;;6.44;100.00;99964.69;5047255;28;1341;-72
2023/12/09 11:45:04;;;;;;;;;;;;;;;6.42;100.00;99954.50;5049634;28;1997;-74
2023/12/09 11:47:30;;;;;;;;;;;;;;;6.46;100.00;99942.22;5035877;28;1159;-74
2023/12/09 11:49:56;;;;;;;;;;;;;;;6.43;100.00;99945.03;5037475;28;1058;-73
2023/12/09 11:52:22;;;;;;;;;;;;;;;6.42;100.00;99951.91;5043175;28;1053;-73
2023/12/09 11:54:57;;;;;;;;;;;;;;;6.44;100.00;99946.69;5043858;28;1179;-73
2023/12/09 11:57:23;;;;;;;;;;;;;;;6.43;100.00;99932.97;5040414;28;1000;-75
2023/12/09 11:59:48;;;;;;;;;;;;;;;6.45;100.00;99925.94;5045930;28;1064;-72
2023/12/09 12:02:13;;;;;;;;;;;;;;;6.48;100.00;99909.41;5052476;28;1167;-75
2023/12/09 12:04:39;;;;;;;;;;;;;;;6.47;100.00;99894.91;5042086;28;2037;-73
2023/12/09 12:07:04;;;;;;;;;;;;;;;6.53;100.00;99892.66;5040424;28;1734;-73
2023/12/09 12:09:29;;;;;;;;;;;;;;;6.56;100.00;99876.16;5047779;28;1295;-74
2023/12/09 12:11:54;;;;;;;;;;;;;;;6.57;100.00;99862.31;5035417;28;1076;-73
2023/12/09 12:14:20;;;;;;;;;;;;;;;6.60;100.00;99851.78;5046899;28;1156;-75
2023/12/09 12:16:45;;;;;;;;;;;;;;;6.60;100.00;99836.31;5044291;28;1169;-73
2023/12/09 12:19:10;;;;;;;;;;;;;;;6.61;100.00;99812.19;5047881;28;1230;-73
2023/12/09 12:21:35;;;;;;;;;;;;;;;6.61;100.00;99817.34;5043094;28;960;-74
2023/12/09 12:24:05;;;;;;;;;;;;;;;6.66;100.00;99817.78;5049454;28;1145;-75
2023/12/09 12:26:30;;;;;;;;;;;;;;;6.66;100.00;99815.22;5049945;28;1989;-75
2023/12/09 12:28:56;;;;;;;;;;;;;;;6.67;100.00;99791.09;5039450;28;1124;-74
2023/12/09 12:31:22;;;;;;;;;;;;;;;6.69;100.00;99766.00;5040769;28;1254;-73
2023/12/09 12:33:47;;;;;;;;;;;;;;;6.68;100.00;99756.63;5034272;28;1173;-73
2023/12/09 12:36:13;;;;;;;;;;;;;;;6.67;100.00;99744.69;5039738;28;1419;-74
2023/12/09 12:38:38;;;;;;;;;;;;;;;6.67;100.00;99731.81;5036960;28;1105;-72
2023/12/09 12:41:03;;;;;;;;;;;;;;;6.66;100.00;99732.78;5040338;28;1026;-72